Data for 06/14/2017

Time Sea-Level Adjusted Pressure Absolute Pressure Temperature Relative Humidity Dew Point   
(mb) (inHg) (mb) (inHg) (C) (F) (%) (C) (F)
00:05 1016 30 846 24.98 7.6 45.7 85 5.2 41.4
00:10 1016 30 846 24.98 7.5 45.6 85 5.2 41.4
00:15 1016 30 846 24.98 7.5 45.6 86 5.4 41.7
00:20 1016 30 846 24.98 7.5 45.4 86 5.3 41.5
00:25 1016 30 846 24.98 7.4 45.4 86 5.3 41.5
00:30 1016 30 846 24.98 7.4 45.3 86 5.3 41.5
00:35 1016 30 846 24.98 7.4 45.3 87 5.3 41.6
00:40 1017 30.03 846 24.98 7.3 45.2 86 5.1 41.3
00:45 1017 30.03 846 24.98 7.3 45.2 86 5.2 41.3
00:50 1017 30.03 846 24.98 7.2 44.9 86 5 41.1
00:55 1017 30.03 846 24.98 7.2 44.9 87 5.2 41.3
01:00 1017 30.03 846 24.98 7.2 44.9 87 5.1 41.2
01:05 1017 30.03 846 24.98 7.2 45 86 5.1 41.1
01:10 1017 30.03 846 24.98 7.2 45 86 5.1 41.2
01:15 1017 30.03 846 24.98 7.2 45 87 5.2 41.4
01:20 1017 30.03 846 24.98 7.3 45.1 87 5.2 41.4
01:25 1017 30.03 846 24.98 7.3 45.1 87 5.3 41.5
01:30 1017 30.03 846 24.98 7.3 45.1 86 5.1 41.1
01:35 1017 30.03 846 24.98 7.3 45.1 87 5.3 41.5
01:40 1017 30.03 846 24.98 7.1 44.8 87 5.1 41.1
01:45 1017 30.03 846 24.98 7.1 44.7 87 5.1 41.2
01:50 1017 30.03 846 24.98 7.1 44.8 88 5.2 41.4
01:55 1017 30.03 846 24.98 7.1 44.7 87 5.1 41.2
02:00 1017 30.03 846 24.98 7 44.6 87 5 41
02:05 1017 30.03 846 24.98 7 44.7 87 5.1 41.2
02:10 1017 30.03 846 24.98 6.9 44.4 89 5.2 41.4
02:15 1017 30.03 846 24.98 6.9 44.4 90 5.4 41.6
02:20 1017 30.03 846 24.98 6.8 44.3 90 5.3 41.6
02:25 1017 30.03 846 24.98 6.8 44.2 90 5.3 41.5
02:30 1017 30.03 846 24.98 6.8 44.3 90 5.3 41.5
02:35 1017 30.03 846 24.98 6.8 44.3 90 5.2 41.4
02:40 1017 30.03 846 24.98 6.8 44.3 89 5.2 41.3
02:45 1017 30.03 846 24.98 6.9 44.3 89 5.1 41.2
02:50 1017 30.03 846 24.98 6.8 44.3 86 4.6 40.4
02:55 1017 30.03 846 24.98 7 44.6 86 4.8 40.7
03:00 1017 30.03 846 24.98 7.1 44.7 85 4.6 40.3
03:05 1017 30.03 846 24.98 7.1 44.8 86 4.9 40.8
03:10 1017 30.03 846 24.98 7.2 44.9 86 5 40.9
03:15 1017 30.03 846 24.98 7.2 44.9 86 4.9 40.9
03:20 1017 30.03 846 24.98 7.2 45 84 4.8 40.6
03:25 1017 30.03 847 25.01 7.3 45.2 85 4.9 40.8
03:30 1017 30.03 847 25.01 7.4 45.3 85 5 40.9
03:35 1017 30.03 847 25.01 7.4 45.3 84 4.9 40.8
03:40 1017 30.03 846 24.98 7.3 45.2 86 5.1 41.1
03:45 1017 30.03 846 24.98 7.3 45.2 85 5 41.1
03:50 1017 30.03 846 24.98 7.3 45.2 85 4.9 40.9
03:55 1017 30.03 847 25.01 7.3 45.1 86 5 41
04:00 1017 30.03 846 24.98 7.3 45.2 85 4.9 40.9
04:05 1017 30.03 846 24.98 7.4 45.4 84 4.9 40.9
04:10 1017 30.03 846 24.98 7.4 45.3 85 5.1 41.1
04:15 1017 30.03 846 24.98 7.4 45.3 83 4.8 40.6
04:20 1017 30.03 846 24.98 7.4 45.3 84 4.8 40.7
04:25 1017 30.03 847 25.01 7.4 45.4 84 4.9 40.8
04:30 1017 30.03 847 25.01 7.4 45.4 85 5 41
04:35 1017 30.03 847 25.01 7.5 45.4 83 4.8 40.7
04:40 1017 30.03 847 25.01 7.4 45.4 84 4.8 40.7
04:45 1017 30.03 847 25.01 7.4 45.4 84 4.9 40.9
04:50 1017 30.03 847 25.01 7.5 45.4 83 4.8 40.6
04:55 1017 30.03 847 25.01 7.5 45.4 84 5 41
05:00 1017 30.03 847 25.01 7.4 45.3 84 4.9 40.9
05:05 1017 30.03 847 25.01 7.4 45.2 84 4.8 40.6
05:10 1018 30.06 847 25.01 7.4 45.3 83 4.7 40.5
05:15 1018 30.06 847 25.01 7.4 45.3 87 5.3 41.6
05:20 1017 30.03 847 25.01 7.3 45.1 87 5.3 41.5
05:25 1018 30.06 847 25.01 7.1 44.8 88 5.3 41.5
05:30 1018 30.06 847 25.01 7.2 44.9 88 5.3 41.6
05:35 1018 30.06 847 25.01 7.2 44.9 86 5 41
05:40 1017 30.03 847 25.01 7.3 45.1 83 4.6 40.3
05:45 1017 30.03 847 25.01 7.5 45.4 83 4.7 40.5
05:50 1017 30.03 847 25.01 7.5 45.5 85 5.1 41.2
05:55 1018 30.06 847 25.01 7.3 45.1 86 5 41.1
06:00 1018 30.06 847 25.01 7.2 44.9 85 4.9 40.7
06:05 1017 30.03 847 25.01 7.3 45.2 82 4.4 40
06:10 1017 30.03 847 25.01 7.6 45.6 79 4.1 39.4
06:15 1018 30.06 847 25.01 7.9 46.1 80 4.6 40.3
06:20 1018 30.06 847 25.01 7.8 46 77 4.1 39.3
06:25 1018 30.06 847 25.01 7.9 46.3 77 4.2 39.5
06:30 1018 30.06 847 25.01 8.1 46.5 77 4.4 39.9
06:35 1018 30.06 847 25.01 8.1 46.6 81 5 41
06:40 1018 30.06 847 25.01 8 46.5 81 4.9 40.9
06:45 1018 30.06 847 25.01 8 46.3 82 5 41.1
06:50 1018 30.06 847 25.01 7.9 46.2 81 4.9 40.8
06:55 1018 30.06 847 25.01 8 46.3 81 4.9 40.9
07:00 1018 30.06 847 25.01 8 46.5 83 5.3 41.5
07:05 1018 30.06 847 25.01 8.1 46.7 81 5 41.1
07:10 1018 30.06 847 25.01 8.5 47.2 79 5.1 41.1
07:15 1018 30.06 847 25.01 8.8 47.9 78 5.2 41.4
07:20 1018 30.06 847 25.01 9.1 48.4 76 5.1 41.1
07:25 1018 30.06 847 25.01 9.2 48.5 74 4.9 40.8
07:30 1018 30.06 847 25.01 9.5 49.2 73 5 40.9
07:35 1018 30.06 847 25.01 10.1 50.1 73 5.5 42
07:40 1018 30.06 847 25.01 10.1 50.2 74 5.8 42.4
07:45 1018 30.06 847 25.01 10.5 50.9 70 5.3 41.6
07:50 1018 30.06 847 25.01 10.9 51.7 68 5.4 41.7
07:55 1018 30.06 847 25.01 11 51.9 66 5.1 41.1
08:00 1018 30.06 847 25.01 11.2 52.2 65 4.9 40.9
08:05 1018 30.06 847 25.01 11.7 53.1 63 5 41.1
08:10 1018 30.06 847 25.01 11.8 53.3 62 4.8 40.7
08:15 1018 30.06 847 25.01 11.3 52.4 64 4.7 40.5
08:20 1018 30.06 847 25.01 11.3 52.4 64 4.8 40.7
08:25 1018 30.06 847 25.01 11.6 52.9 61 4.4 39.9
08:30 1018 30.06 847 25.01 11.8 53.2 62 4.9 40.8
08:35 1018 30.06 847 25.01 11.9 53.5 62 4.9 40.8
08:40 1018 30.06 847 25.01 12 53.6 62 5 41.1
08:45 1018 30.06 847 25.01 12 53.7 61 4.9 40.8
08:50 1017 30.03 847 25.01 12.2 53.9 60 4.7 40.5
08:55 1017 30.03 847 25.01 12.5 54.5 59 4.7 40.4
09:00 1017 30.03 847 25.01 12.5 54.5 59 4.7 40.5
09:05 1017 30.03 847 25.01 12.8 55 58 4.7 40.5
09:10 1018 30.06 847 25.01 13.3 56 56 4.8 40.7
09:15 1018 30.06 847 25.01 13.6 56.4 57 5.2 41.3
09:20 1018 30.06 847 25.01 13.3 56 55 4.6 40.2
09:25 1018 30.06 847 25.01 13.1 55.6 56 4.5 40.1
09:30 1018 30.06 847 25.01 13.1 55.5 54 4 39.3
09:35 1018 30.06 847 25.01 13.5 56.3 53 4.2 39.6
09:40 1018 30.06 847 25.01 14 57.3 52 4.5 40
09:45 1018 30.06 847 25.01 14.3 57.8 50 4.2 39.5
09:50 1018 30.06 847 25.01 14.6 58.3 50 4.4 39.9
09:55 1018 30.06 847 25.01 14.7 58.4 49 4.1 39.4
10:00 1018 30.06 847 25.01 14.6 58.4 48 3.9 39
10:05 1017 30.03 847 25.01 14.7 58.5 49 4.1 39.5
10:10 1017 30.03 847 25.01 14.3 57.7 52 4.5 40.1
10:15 1017 30.03 847 25.01 14 57.2 51 4.2 39.5
10:20 1018 30.06 847 25.01 14.2 57.5 52 4.6 40.2
10:25 1018 30.06 847 25.01 14.5 58.1 48 3.8 38.8
10:30 1018 30.06 847 25.01 15.1 59.2 35 0 32
10:35 1018 30.06 847 25.01 15.1 59.2 36 0.2 32.4
10:40 1018 30.06 847 25.01 15 59 33 -1.2 29.8
10:45 1018 30.06 847 25.01 15.3 59.5 32 -1.1 30
10:50 1018 30.06 847 25.01 15.1 59.3 32 -1.2 29.8
10:55 1018 30.06 847 25.01 15.2 59.4 31 -1.7 28.9
11:00 1018 30.06 847 25.01 15 59.1 32 -1.4 29.5
11:05 1018 30.06 847 25.01 14.6 58.3 33 -1.3 29.7
11:10 1018 30.06 847 25.01 15.1 59.2 33 -0.9 30.4
11:15 1018 30.06 847 25.01 15.2 59.4 35 -0.2 31.7
11:20 1018 30.06 847 25.01 14.8 58.6 34 -1 30.1
11:25 1018 30.06 847 25.01 14.6 58.4 32 -1.6 29.1
11:30 1018 30.06 847 25.01 15.2 59.3 32 -1.4 29.5
11:35 1017 30.03 847 25.01 15.9 60.6 31 -0.9 30.4
11:40 1017 30.03 847 25.01 16.2 61.1 29 -1.6 29.1
11:45 1017 30.03 847 25.01 16.1 61 30 -1.1 29.9
11:50 1017 30.03 847 25.01 16 60.8 31 -1.1 30
11:55 1017 30.03 847 25.01 16.1 60.9 32 -0.6 31
12:00 1017 30.03 847 25.01 16 60.9 29 -1.9 28.6
12:05 1017 30.03 847 25.01 16.4 61.4 29 -1.8 28.8
12:10 1017 30.03 847 25.01 16.7 62 28 -2 28.4
12:15 1017 30.03 847 25.01 16.1 61 29 -1.7 28.9
12:20 1017 30.03 847 25.01 16.2 61.1 29 -1.6 29.1
12:25 1017 30.03 847 25.01 16.5 61.6 29 -1.7 29
12:30 1017 30.03 847 25.01 17.3 63.1 27 -1.9 28.6
12:35 1017 30.03 847 25.01 17.3 63.2 29 -0.7 30.8
12:40 1017 30.03 847 25.01 17.6 63.7 29 -0.3 31.5
12:45 1017 30.03 847 25.01 17.3 63.2 28 -1.2 29.9
12:50 1017 30.03 847 25.01 16.9 62.4 27 -2.2 28
12:55 1017 30.03 847 25.01 17.1 62.8 28 -1.5 29.3
13:00 1018 30.06 847 25.01 16.8 62.3 28 -1.5 29.4
13:05 1018 30.06 847 25.01 16.8 62.2 29 -1.3 29.6
13:10 1018 30.06 847 25.01 16.7 62 29 -1.5 29.4
13:15 1018 30.06 847 25.01 17 62.5 29 -0.9 30.5
13:20 1018 30.06 847 25.01 17.1 62.7 28 -1.5 29.4
13:25 1018 30.06 847 25.01 17.7 63.8 26 -2.2 28.1
13:30 1017 30.03 847 25.01 17.1 62.8 28 -1.6 29.1
13:35 1017 30.03 847 25.01 17.5 63.5 28 -1.2 29.8
13:40 1017 30.03 847 25.01 17.3 63.2 27 -1.6 29.2
13:45 1017 30.03 847 25.01 17.5 63.5 28 -0.9 30.3
13:50 1017 30.03 847 25.01 17.2 62.9 27 -2.1 28.2
13:55 1017 30.03 847 25.01 17.2 63 26 -2.1 28.2
14:00 1017 30.03 847 25.01 17.6 63.7 27 -1.6 29.2
14:05 1017 30.03 847 25.01 17.4 63.3 26 -2.3 27.8
14:10 1017 30.03 847 25.01 17.2 63 26 -2.4 27.7
14:15 1017 30.03 847 25.01 17.1 62.8 27 -2 28.4
14:20 1017 30.03 847 25.01 17.2 62.9 27 -1.9 28.6
14:25 1017 30.03 847 25.01 17.6 63.6 26 -2.2 28.1
14:30 1017 30.03 847 25.01 18.2 64.7 27 -1.1 30.1
14:35 1017 30.03 847 25.01 17.9 64.1 24 -2.7 27.2
14:40 1017 30.03 847 25.01 17.4 63.2 24 -3.2 26.2
14:45 1017 30.03 846 24.98 17.2 63 27 -1.9 28.7
14:50 1017 30.03 847 25.01 18 64.3 25 -2 28.4
14:55 1017 30.03 847 25.01 18.3 64.9 22 -3.7 25.3
15:00 1017 30.03 846 24.98 18.3 64.9 24 -2.4 27.6
15:05 1017 30.03 846 24.98 18.7 65.7 23 -2.7 27.2
15:10 1017 30.03 846 24.98 18.9 66 24 -2.1 28.3
15:15 1017 30.03 846 24.98 18.6 65.5 23 -3.1 26.4
15:20 1017 30.03 846 24.98 18.2 64.8 23 -2.9 26.7
15:25 1017 30.03 846 24.98 18.2 64.8 24 -2.4 27.7
15:30 1017 30.03 847 25.01 18.4 65 26 -1.6 29.1
15:35 1017 30.03 847 25.01 18.7 65.7 26 -1.3 29.7
15:40 1017 30.03 846 24.98 18.8 65.8 23 -2.8 27
15:45 1017 30.03 846 24.98 18 64.3 25 -2.2 28.1
15:50 1017 30.03 846 24.98 18 64.3 24 -2.9 26.9
15:55 1017 30.03 846 24.98 18.1 64.6 24 -2.6 27.3
16:00 1017 30.03 846 24.98 18.2 64.7 25 -2 28.5
16:05 1017 30.03 847 25.01 18.4 65 26 -1.3 29.7
16:10 1017 30.03 846 24.98 18.2 64.8 26 -1.4 29.5
16:15 1017 30.03 846 24.98 18.4 65.1 26 -1.4 29.4
16:20 1017 30.03 846 24.98 18.8 65.9 26 -0.9 30.4
16:25 1017 30.03 846 24.98 18.4 65.2 25 -1.6 29.2
16:30 1017 30.03 846 24.98 18.3 64.9 25 -1.7 29
16:35 1017 30.03 846 24.98 18.8 65.8 25 -1.6 29
16:40 1017 30.03 846 24.98 19.2 66.6 24 -1.7 29
16:45 1017 30.03 846 24.98 19.1 66.4 23 -2.1 28.3
16:50 1017 30.03 846 24.98 19.9 67.8 23 -1.9 28.7
16:55 1017 30.03 846 24.98 19.4 67 24 -1.7 28.9
17:00 1017 30.03 846 24.98 19.4 66.8 23 -2.2 28
17:05 1017 30.03 846 24.98 19.7 67.4 23 -1.7 28.9
17:10 1017 30.03 846 24.98 19.6 67.3 23 -2 28.4
17:15 1017 30.03 846 24.98 19.8 67.7 22 -2.2 28.1
17:20 1017 30.03 846 24.98 20 67.9 23 -1.6 29.1
17:25 1017 30.03 846 24.98 20.1 68.1 24 -1.1 30.1
17:30 1017 30.03 846 24.98 20 68.1 24 -0.8 30.5
17:35 1017 30.03 846 24.98 19.7 67.5 24 -1.4 29.4
17:40 1017 30.03 846 24.98 20.1 68.1 23 -1.5 29.4
17:45 1017 30.03 846 24.98 19.8 67.6 23 -1.7 28.9
17:50 1017 30.03 846 24.98 19.7 67.4 24 -1.4 29.4
17:55 1017 30.03 846 24.98 20.1 68.1 24 -1.1 30
18:00 1017 30.03 846 24.98 20.2 68.3 23 -1.3 29.7
18:05 1017 30.03 846 24.98 20.1 68.2 23 -1.2 29.8
18:10 1017 30.03 846 24.98 20.1 68.3 23 -1.6 29.2
18:15 1017 30.03 846 24.98 20 67.9 23 -1.5 29.3
18:20 1017 30.03 846 24.98 19.3 66.8 23 -1.9 28.6
18:25 1017 30.03 846 24.98 19.7 67.4 25 -0.8 30.5
18:30 1017 30.03 846 24.98 20 68.1 23 -1.6 29.1
18:35 1017 30.03 846 24.98 20.1 68.1 23 -1.4 29.5
18:40 1017 30.03 846 24.98 19.9 67.8 23 -1.5 29.3
18:45 1017 30.03 846 24.98 19.8 67.6 24 -1 30.2
18:50 1017 30.03 846 24.98 19.8 67.6 25 -0.7 30.7
18:55 1017 30.03 846 24.98 19.7 67.4 25 -0.5 31
19:00 1017 30.03 846 24.98 19.6 67.2 26 -0.5 31.1
19:05 1017 30.03 846 24.98 19.5 67.1 25 -1.1 30.1
19:10 1017 30.03 846 24.98 19.3 66.7 26 -0.5 31.1
19:15 1017 30.03 846 24.98 19.3 66.7 26 -0.5 31.1
19:20 1017 30.03 846 24.98 19.2 66.5 27 -0.2 31.6
19:25 1017 30.03 846 24.98 19 66.1 27 -0.4 31.2
19:30 1017 30.03 846 24.98 18.8 65.8 27 -0.4 31.3
19:35 1017 30.03 846 24.98 18.7 65.6 27 -0.5 31
19:40 1017 30.03 846 24.98 18.6 65.5 27 -0.4 31.2
19:45 1017 30.03 846 24.98 18.5 65.3 28 -0.1 31.7
19:50 1017 30.03 846 24.98 18.3 65 28 -0.2 31.7
19:55 1017 30.03 847 25.01 18.2 64.8 29 -0.2 31.7
20:00 1017 30.03 847 25.01 18.1 64.6 28 -0.7 30.8
20:05 1017 30.03 847 25.01 18 64.4 28 -0.5 31.1
20:10 1017 30.03 847 25.01 17.9 64.2 29 -0.4 31.3
20:15 1017 30.03 847 25.01 17.8 64 30 -0.1 31.8
20:20 1017 30.03 847 25.01 17.6 63.7 30 -0 31.9
20:25 1017 30.03 847 25.01 17.5 63.5 30 -0.2 31.7
20:30 1017 30.03 847 25.01 17.5 63.4 30 -0.1 31.8
20:35 1017 30.03 847 25.01 17.3 63.2 31 -0 31.9
20:40 1017 30.03 847 25.01 17.2 63 31 0.2 32.3
20:45 1017 30.03 847 25.01 17.1 62.9 31 0.1 32.1
20:50 1017 30.03 847 25.01 17 62.7 32 0.4 32.7
20:55 1018 30.06 847 25.01 16.7 62.1 35 1.2 34.1
21:00 1018 30.06 847 25.01 16.2 61.2 38 2 35.7
21:05 1018 30.06 847 25.01 15.7 60.3 42 2.9 37.1
21:10 1018 30.06 847 25.01 15.3 59.6 45 3.5 38.3
21:15 1018 30.06 847 25.01 15.1 59.1 43 2.8 37
21:20 1018 30.06 847 25.01 15 59 42 2.4 36.4
21:25 1018 30.06 847 25.01 15 59 42 2.4 36.3
21:30 1018 30.06 847 25.01 15.1 59.2 42 2.2 36
21:35 1018 30.06 847 25.01 15.1 59.2 41 2 35.6
21:40 1018 30.06 847 25.01 15.1 59.2 40 1.7 35.1
21:45 1018 30.06 847 25.01 15.2 59.3 40 1.6 35
21:50 1018 30.06 847 25.01 15.2 59.3 39 1.6 34.8
21:55 1018 30.06 847 25.01 15.2 59.3 39 1.4 34.6
22:00 1018 30.06 847 25.01 15.2 59.3 40 1.7 35
22:05 1018 30.06 847 25.01 15.2 59.3 39 1.3 34.4
22:10 1018 30.06 847 25.01 15.3 59.5 39 1.3 34.4
22:15 1018 30.06 847 25.01 15.1 59.2 40 1.5 34.8
22:20 1018 30.06 847 25.01 15 58.9 40 1.5 34.6
22:25 1018 30.06 847 25.01 15 59 39 1.2 34.2
22:30 1018 30.06 847 25.01 15.1 59.1 39 1.2 34.2
22:35 1018 30.06 847 25.01 15 59 39 1.3 34.3
22:40 1018 30.06 847 25.01 14.9 58.9 39 1.2 34.1
22:45 1018 30.06 847 25.01 14.9 58.7 40 1.4 34.5
22:50 1018 30.06 847 25.01 14.8 58.6 40 1.6 34.8
22:55 1018 30.06 847 25.01 14.7 58.5 40 1.5 34.7
23:00 1018 30.06 847 25.01 14.7 58.5 39 1.1 34
23:05 1018 30.06 847 25.01 14.9 58.8 40 1.4 34.6
23:10 1018 30.06 847 25.01 14.9 58.8 40 1.5 34.7
23:15 1018 30.06 847 25.01 14.7 58.4 40 1.4 34.6
23:20 1018 30.06 847 25.01 14.7 58.4 40 1.4 34.4
23:25 1018 30.06 847 25.01 14.8 58.6 37 0.3 32.5
23:30 1018 30.06 847 25.01 15.1 59.1 41 1.8 35.3
23:35 1018 30.06 847 25.01 14.9 58.8 40 1.4 34.6
23:40 1018 30.06 847 25.01 14.9 58.8 42 2.3 36.2
23:45 1018 30.06 847 25.01 14.3 57.7 46 2.9 37.3
23:50 1018 30.06 847 25.01 13.8 56.9 48 3 37.3
23:55 1018 30.06 847 25.01 13.6 56.5 49 3.1 37.7
24:00 1018 30.06 847 25.01 13.5 56.4 50 3.5 38.3